sensor_id;sensor_type;location;lat;lon;timestamp;P1;durP1;ratioP1;P2;durP2;ratioP2
55009;SDS011;40903;51.638;7.528;2023-09-19T00:02:19;4.03;;;2.30;;
55009;SDS011;40903;51.638;7.528;2023-09-19T00:04:45;7.60;;;2.67;;
55009;SDS011;40903;51.638;7.528;2023-09-19T00:07:10;6.13;;;2.90;;
55009;SDS011;40903;51.638;7.528;2023-09-19T00:09:38;5.93;;;2.70;;
55009;SDS011;40903;51.638;7.528;2023-09-19T00:12:05;6.50;;;2.70;;
55009;SDS011;40903;51.638;7.528;2023-09-19T00:14:34;5.40;;;2.80;;
55009;SDS011;40903;51.638;7.528;2023-09-19T00:17:00;7.63;;;2.60;;
55009;SDS011;40903;51.638;7.528;2023-09-19T00:19:30;7.60;;;2.60;;
55009;SDS011;40903;51.638;7.528;2023-09-19T00:21:57;5.93;;;2.60;;
55009;SDS011;40903;51.638;7.528;2023-09-19T00:24:23;8.60;;;2.40;;
55009;SDS011;40903;51.638;7.528;2023-09-19T00:26:49;5.80;;;2.97;;
55009;SDS011;40903;51.638;7.528;2023-09-19T00:29:17;7.07;;;2.63;;
55009;SDS011;40903;51.638;7.528;2023-09-19T00:31:45;9.43;;;2.30;;
55009;SDS011;40903;51.638;7.528;2023-09-19T00:34:11;6.70;;;2.37;;
55009;SDS011;40903;51.638;7.528;2023-09-19T00:36:39;4.63;;;2.37;;
55009;SDS011;40903;51.638;7.528;2023-09-19T00:39:05;5.37;;;2.00;;
55009;SDS011;40903;51.638;7.528;2023-09-19T00:41:33;6.63;;;2.70;;
55009;SDS011;40903;51.638;7.528;2023-09-19T00:44:03;11.30;;;3.30;;
55009;SDS011;40903;51.638;7.528;2023-09-19T00:46:30;7.37;;;2.60;;
55009;SDS011;40903;51.638;7.528;2023-09-19T00:48:57;7.73;;;2.87;;
55009;SDS011;40903;51.638;7.528;2023-09-19T00:51:24;10.03;;;2.63;;
55009;SDS011;40903;51.638;7.528;2023-09-19T00:53:51;5.20;;;2.43;;
55009;SDS011;40903;51.638;7.528;2023-09-19T00:56:18;10.23;;;3.00;;
55009;SDS011;40903;51.638;7.528;2023-09-19T00:58:45;7.90;;;2.93;;
55009;SDS011;40903;51.638;7.528;2023-09-19T01:01:11;7.87;;;2.40;;
55009;SDS011;40903;51.638;7.528;2023-09-19T01:03:39;7.30;;;2.57;;
55009;SDS011;40903;51.638;7.528;2023-09-19T01:06:07;11.63;;;2.93;;
55009;SDS011;40903;51.638;7.528;2023-09-19T01:08:33;5.47;;;2.37;;
55009;SDS011;40903;51.638;7.528;2023-09-19T01:11:26;10.77;;;2.97;;
55009;SDS011;40903;51.638;7.528;2023-09-19T01:13:58;8.33;;;2.50;;
55009;SDS011;40903;51.638;7.528;2023-09-19T01:19:35;11.33;;;2.63;;
55009;SDS011;40903;51.638;7.528;2023-09-19T01:30:45;5.47;;;2.10;;
55009;SDS011;40903;51.638;7.528;2023-09-19T01:33:12;7.30;;;2.83;;
55009;SDS011;40903;51.638;7.528;2023-09-19T01:35:39;8.57;;;2.60;;
55009;SDS011;40903;51.638;7.528;2023-09-19T01:38:05;5.97;;;2.00;;
55009;SDS011;40903;51.638;7.528;2023-09-19T01:40:39;8.53;;;2.30;;
55009;SDS011;40903;51.638;7.528;2023-09-19T01:45:51;9.70;;;2.70;;
55009;SDS011;40903;51.638;7.528;2023-09-19T01:48:25;12.47;;;3.30;;
55009;SDS011;40903;51.638;7.528;2023-09-19T01:51:00;6.93;;;2.43;;
55009;SDS011;40903;51.638;7.528;2023-09-19T01:53:33;7.47;;;2.50;;
55009;SDS011;40903;51.638;7.528;2023-09-19T01:56:01;8.60;;;2.53;;
55009;SDS011;40903;51.638;7.528;2023-09-19T01:58:43;11.60;;;2.70;;
55009;SDS011;40903;51.638;7.528;2023-09-19T02:01:15;9.53;;;2.63;;
55009;SDS011;40903;51.638;7.528;2023-09-19T02:03:45;8.83;;;2.60;;
55009;SDS011;40903;51.638;7.528;2023-09-19T02:06:15;8.47;;;2.47;;
55009;SDS011;40903;51.638;7.528;2023-09-19T02:08:43;8.23;;;2.53;;
55009;SDS011;40903;51.638;7.528;2023-09-19T02:11:10;11.47;;;2.87;;
55009;SDS011;40903;51.638;7.528;2023-09-19T02:13:35;8.47;;;2.17;;
55009;SDS011;40903;51.638;7.528;2023-09-19T02:16:01;9.23;;;3.10;;
55009;SDS011;40903;51.638;7.528;2023-09-19T02:18:29;11.47;;;2.77;;
55009;SDS011;40903;51.638;7.528;2023-09-19T02:20:55;7.40;;;2.43;;
55009;SDS011;40903;51.638;7.528;2023-09-19T02:23:21;10.27;;;2.57;;
55009;SDS011;40903;51.638;7.528;2023-09-19T02:25:56;8.17;;;2.40;;
55009;SDS011;40903;51.638;7.528;2023-09-19T02:28:26;8.30;;;3.07;;
55009;SDS011;40903;51.638;7.528;2023-09-19T02:31:00;9.33;;;2.70;;
55009;SDS011;40903;51.638;7.528;2023-09-19T02:33:28;10.00;;;2.63;;
55009;SDS011;40903;51.638;7.528;2023-09-19T02:35:57;7.57;;;3.00;;
55009;SDS011;40903;51.638;7.528;2023-09-19T02:38:23;7.70;;;3.17;;
55009;SDS011;40903;51.638;7.528;2023-09-19T02:40:50;8.40;;;2.60;;
55009;SDS011;40903;51.638;7.528;2023-09-19T02:43:18;7.33;;;2.30;;
55009;SDS011;40903;51.638;7.528;2023-09-19T02:45:48;8.87;;;2.60;;
55009;SDS011;40903;51.638;7.528;2023-09-19T02:48:36;7.30;;;2.50;;
55009;SDS011;40903;51.638;7.528;2023-09-19T02:51:02;9.97;;;2.83;;
55009;SDS011;40903;51.638;7.528;2023-09-19T02:53:32;7.20;;;2.40;;
55009;SDS011;40903;51.638;7.528;2023-09-19T02:55:58;11.10;;;2.90;;
55009;SDS011;40903;51.638;7.528;2023-09-19T02:58:25;10.87;;;2.83;;
55009;SDS011;40903;51.638;7.528;2023-09-19T03:00:52;8.83;;;2.50;;
55009;SDS011;40903;51.638;7.528;2023-09-19T03:03:20;11.73;;;3.00;;
55009;SDS011;40903;51.638;7.528;2023-09-19T03:05:46;10.47;;;2.60;;
55009;SDS011;40903;51.638;7.528;2023-09-19T03:08:12;11.03;;;2.90;;
55009;SDS011;40903;51.638;7.528;2023-09-19T03:10:41;11.30;;;2.63;;
55009;SDS011;40903;51.638;7.528;2023-09-19T03:13:07;8.67;;;2.57;;
55009;SDS011;40903;51.638;7.528;2023-09-19T03:15:35;11.60;;;2.77;;
55009;SDS011;40903;51.638;7.528;2023-09-19T03:18:04;8.20;;;2.40;;
55009;SDS011;40903;51.638;7.528;2023-09-19T03:20:29;13.50;;;2.50;;
55009;SDS011;40903;51.638;7.528;2023-09-19T03:22:55;10.97;;;2.77;;
55009;SDS011;40903;51.638;7.528;2023-09-19T03:25:20;11.10;;;2.93;;
55009;SDS011;40903;51.638;7.528;2023-09-19T03:27:48;12.23;;;3.10;;
55009;SDS011;40903;51.638;7.528;2023-09-19T03:30:14;12.57;;;2.93;;
55009;SDS011;40903;51.638;7.528;2023-09-19T03:32:43;13.03;;;3.60;;
55009;SDS011;40903;51.638;7.528;2023-09-19T03:35:12;11.47;;;3.33;;
55009;SDS011;40903;51.638;7.528;2023-09-19T03:37:39;11.60;;;3.03;;
55009;SDS011;40903;51.638;7.528;2023-09-19T03:40:09;10.60;;;3.03;;
55009;SDS011;40903;51.638;7.528;2023-09-19T03:42:41;8.17;;;2.70;;
55009;SDS011;40903;51.638;7.528;2023-09-19T03:45:07;9.40;;;3.00;;
55009;SDS011;40903;51.638;7.528;2023-09-19T03:47:37;10.00;;;3.20;;
55009;SDS011;40903;51.638;7.528;2023-09-19T03:50:04;9.60;;;2.60;;
55009;SDS011;40903;51.638;7.528;2023-09-19T03:52:32;9.90;;;2.83;;
55009;SDS011;40903;51.638;7.528;2023-09-19T03:54:57;9.77;;;2.87;;
55009;SDS011;40903;51.638;7.528;2023-09-19T03:57:23;11.53;;;2.60;;
55009;SDS011;40903;51.638;7.528;2023-09-19T03:59:48;12.27;;;3.67;;
55009;SDS011;40903;51.638;7.528;2023-09-19T04:02:14;9.50;;;2.33;;
55009;SDS011;40903;51.638;7.528;2023-09-19T04:04:50;8.30;;;2.30;;
55009;SDS011;40903;51.638;7.528;2023-09-19T04:07:16;11.23;;;3.07;;
55009;SDS011;40903;51.638;7.528;2023-09-19T04:09:42;11.73;;;2.63;;
55009;SDS011;40903;51.638;7.528;2023-09-19T04:12:11;10.00;;;2.37;;
55009;SDS011;40903;51.638;7.528;2023-09-19T04:14:37;11.40;;;2.63;;
55009;SDS011;40903;51.638;7.528;2023-09-19T04:17:04;8.20;;;2.87;;
55009;SDS011;40903;51.638;7.528;2023-09-19T04:19:30;11.80;;;2.87;;
55009;SDS011;40903;51.638;7.528;2023-09-19T04:21:56;12.00;;;2.87;;
55009;SDS011;40903;51.638;7.528;2023-09-19T04:24:21;8.33;;;2.20;;
55009;SDS011;40903;51.638;7.528;2023-09-19T04:26:46;9.40;;;2.77;;
55009;SDS011;40903;51.638;7.528;2023-09-19T04:29:12;6.73;;;2.40;;
55009;SDS011;40903;51.638;7.528;2023-09-19T04:31:40;9.87;;;2.90;;
55009;SDS011;40903;51.638;7.528;2023-09-19T04:34:08;8.90;;;2.60;;
55009;SDS011;40903;51.638;7.528;2023-09-19T04:36:35;13.03;;;2.50;;
55009;SDS011;40903;51.638;7.528;2023-09-19T04:39:01;12.67;;;2.90;;
55009;SDS011;40903;51.638;7.528;2023-09-19T04:41:30;8.30;;;2.40;;
55009;SDS011;40903;51.638;7.528;2023-09-19T04:44:05;7.50;;;2.30;;
55009;SDS011;40903;51.638;7.528;2023-09-19T04:46:31;10.30;;;2.73;;
55009;SDS011;40903;51.638;7.528;2023-09-19T04:48:56;5.70;;;2.60;;
55009;SDS011;40903;51.638;7.528;2023-09-19T04:51:22;5.73;;;1.97;;
55009;SDS011;40903;51.638;7.528;2023-09-19T04:53:48;7.60;;;2.10;;
55009;SDS011;40903;51.638;7.528;2023-09-19T04:56:14;6.97;;;2.30;;
55009;SDS011;40903;51.638;7.528;2023-09-19T04:58:40;9.13;;;2.60;;
55009;SDS011;40903;51.638;7.528;2023-09-19T05:01:05;10.10;;;2.60;;
55009;SDS011;40903;51.638;7.528;2023-09-19T05:03:31;11.00;;;2.77;;
55009;SDS011;40903;51.638;7.528;2023-09-19T05:05:58;9.63;;;2.70;;
55009;SDS011;40903;51.638;7.528;2023-09-19T05:08:23;11.23;;;2.80;;
55009;SDS011;40903;51.638;7.528;2023-09-19T05:10:49;7.73;;;2.73;;
55009;SDS011;40903;51.638;7.528;2023-09-19T05:13:15;5.40;;;2.53;;
55009;SDS011;40903;51.638;7.528;2023-09-19T05:15:41;9.07;;;2.80;;
55009;SDS011;40903;51.638;7.528;2023-09-19T05:18:06;12.47;;;2.50;;
55009;SDS011;40903;51.638;7.528;2023-09-19T05:20:32;7.97;;;2.80;;
55009;SDS011;40903;51.638;7.528;2023-09-19T05:23:01;9.07;;;3.13;;
55009;SDS011;40903;51.638;7.528;2023-09-19T05:25:36;12.77;;;2.70;;
55009;SDS011;40903;51.638;7.528;2023-09-19T05:28:05;9.47;;;2.57;;
55009;SDS011;40903;51.638;7.528;2023-09-19T05:30:32;8.80;;;2.57;;
55009;SDS011;40903;51.638;7.528;2023-09-19T05:33:01;11.30;;;2.27;;
55009;SDS011;40903;51.638;7.528;2023-09-19T05:35:29;7.97;;;2.27;;
55009;SDS011;40903;51.638;7.528;2023-09-19T05:37:56;8.60;;;2.50;;
55009;SDS011;40903;51.638;7.528;2023-09-19T05:40:23;6.07;;;2.23;;
55009;SDS011;40903;51.638;7.528;2023-09-19T05:42:51;7.43;;;2.70;;
55009;SDS011;40903;51.638;7.528;2023-09-19T05:45:17;7.97;;;2.47;;
55009;SDS011;40903;51.638;7.528;2023-09-19T05:47:47;7.93;;;2.90;;
55009;SDS011;40903;51.638;7.528;2023-09-19T05:50:14;7.83;;;3.03;;
55009;SDS011;40903;51.638;7.528;2023-09-19T05:52:41;7.47;;;2.30;;
55009;SDS011;40903;51.638;7.528;2023-09-19T05:55:08;7.57;;;2.77;;
55009;SDS011;40903;51.638;7.528;2023-09-19T05:57:36;8.50;;;2.70;;
55009;SDS011;40903;51.638;7.528;2023-09-19T06:00:06;10.40;;;2.60;;
55009;SDS011;40903;51.638;7.528;2023-09-19T06:02:35;8.30;;;2.40;;
55009;SDS011;40903;51.638;7.528;2023-09-19T06:05:03;9.67;;;2.43;;
55009;SDS011;40903;51.638;7.528;2023-09-19T06:07:31;10.13;;;2.63;;
55009;SDS011;40903;51.638;7.528;2023-09-19T06:10:01;12.47;;;2.70;;
55009;SDS011;40903;51.638;7.528;2023-09-19T06:12:42;9.40;;;3.00;;
55009;SDS011;40903;51.638;7.528;2023-09-19T06:15:11;9.70;;;2.53;;
55009;SDS011;40903;51.638;7.528;2023-09-19T06:17:47;7.97;;;2.47;;
55009;SDS011;40903;51.638;7.528;2023-09-19T06:20:13;12.97;;;2.80;;
55009;SDS011;40903;51.638;7.528;2023-09-19T06:22:40;9.93;;;3.17;;
55009;SDS011;40903;51.638;7.528;2023-09-19T06:25:07;6.40;;;2.50;;
55009;SDS011;40903;51.638;7.528;2023-09-19T06:27:44;8.80;;;2.90;;
55009;SDS011;40903;51.638;7.528;2023-09-19T06:30:10;9.97;;;2.80;;
55009;SDS011;40903;51.638;7.528;2023-09-19T06:32:39;12.03;;;2.97;;
55009;SDS011;40903;51.638;7.528;2023-09-19T06:35:10;8.13;;;2.87;;
55009;SDS011;40903;51.638;7.528;2023-09-19T06:37:39;9.37;;;2.80;;
55009;SDS011;40903;51.638;7.528;2023-09-19T06:40:12;12.67;;;2.83;;
55009;SDS011;40903;51.638;7.528;2023-09-19T06:42:39;11.50;;;3.23;;
55009;SDS011;40903;51.638;7.528;2023-09-19T06:45:06;13.50;;;3.20;;
55009;SDS011;40903;51.638;7.528;2023-09-19T06:47:32;11.30;;;2.77;;
55009;SDS011;40903;51.638;7.528;2023-09-19T06:49:57;9.17;;;2.70;;
55009;SDS011;40903;51.638;7.528;2023-09-19T06:52:23;10.03;;;3.13;;
55009;SDS011;40903;51.638;7.528;2023-09-19T06:54:48;8.87;;;2.70;;
55009;SDS011;40903;51.638;7.528;2023-09-19T06:57:18;10.60;;;2.80;;
55009;SDS011;40903;51.638;7.528;2023-09-19T06:59:44;6.13;;;2.57;;
55009;SDS011;40903;51.638;7.528;2023-09-19T07:02:11;9.53;;;2.63;;
55009;SDS011;40903;51.638;7.528;2023-09-19T07:04:38;9.67;;;2.90;;
55009;SDS011;40903;51.638;7.528;2023-09-19T07:07:04;10.33;;;2.60;;
55009;SDS011;40903;51.638;7.528;2023-09-19T07:09:29;7.47;;;2.80;;
55009;SDS011;40903;51.638;7.528;2023-09-19T07:11:58;11.23;;;3.00;;
55009;SDS011;40903;51.638;7.528;2023-09-19T07:14:28;17.00;;;3.07;;
55009;SDS011;40903;51.638;7.528;2023-09-19T07:16:55;14.70;;;3.20;;
55009;SDS011;40903;51.638;7.528;2023-09-19T07:19:20;12.87;;;2.73;;
55009;SDS011;40903;51.638;7.528;2023-09-19T07:21:48;10.07;;;3.23;;
55009;SDS011;40903;51.638;7.528;2023-09-19T07:24:16;9.93;;;2.70;;
55009;SDS011;40903;51.638;7.528;2023-09-19T07:26:41;7.53;;;2.30;;
55009;SDS011;40903;51.638;7.528;2023-09-19T07:29:07;7.53;;;2.60;;
55009;SDS011;40903;51.638;7.528;2023-09-19T07:31:33;6.43;;;2.17;;
55009;SDS011;40903;51.638;7.528;2023-09-19T07:33:59;12.47;;;3.00;;
55009;SDS011;40903;51.638;7.528;2023-09-19T07:36:25;14.30;;;3.60;;
55009;SDS011;40903;51.638;7.528;2023-09-19T07:38:50;6.97;;;2.80;;
55009;SDS011;40903;51.638;7.528;2023-09-19T07:41:16;10.03;;;2.87;;
55009;SDS011;40903;51.638;7.528;2023-09-19T07:43:43;7.73;;;2.67;;
55009;SDS011;40903;51.638;7.528;2023-09-19T07:46:09;9.67;;;2.57;;
55009;SDS011;40903;51.638;7.528;2023-09-19T07:48:35;9.70;;;2.33;;
55009;SDS011;40903;51.638;7.528;2023-09-19T07:51:04;8.33;;;2.47;;
55009;SDS011;40903;51.638;7.528;2023-09-19T07:53:31;12.20;;;3.40;;
55009;SDS011;40903;51.638;7.528;2023-09-19T07:56:05;10.70;;;3.37;;
55009;SDS011;40903;51.638;7.528;2023-09-19T07:58:32;11.43;;;2.60;;
55009;SDS011;40903;51.638;7.528;2023-09-19T08:01:08;6.20;;;2.50;;
55009;SDS011;40903;51.638;7.528;2023-09-19T08:03:35;9.57;;;3.07;;
55009;SDS011;40903;51.638;7.528;2023-09-19T08:06:05;10.00;;;2.67;;
55009;SDS011;40903;51.638;7.528;2023-09-19T08:08:33;6.03;;;2.57;;
55009;SDS011;40903;51.638;7.528;2023-09-19T08:11:02;13.17;;;3.10;;
55009;SDS011;40903;51.638;7.528;2023-09-19T08:13:35;8.87;;;2.43;;
55009;SDS011;40903;51.638;7.528;2023-09-19T08:16:03;12.30;;;2.87;;
55009;SDS011;40903;51.638;7.528;2023-09-19T08:18:30;9.17;;;2.67;;
55009;SDS011;40903;51.638;7.528;2023-09-19T08:20:58;12.33;;;3.37;;
55009;SDS011;40903;51.638;7.528;2023-09-19T08:23:25;12.60;;;3.17;;
55009;SDS011;40903;51.638;7.528;2023-09-19T08:25:55;16.83;;;3.47;;
55009;SDS011;40903;51.638;7.528;2023-09-19T08:28:24;8.77;;;2.90;;
55009;SDS011;40903;51.638;7.528;2023-09-19T08:30:49;12.03;;;3.00;;
55009;SDS011;40903;51.638;7.528;2023-09-19T08:33:16;9.47;;;2.80;;
55009;SDS011;40903;51.638;7.528;2023-09-19T08:35:42;10.53;;;2.67;;
55009;SDS011;40903;51.638;7.528;2023-09-19T08:38:09;12.30;;;3.33;;
55009;SDS011;40903;51.638;7.528;2023-09-19T08:40:37;11.50;;;2.57;;
55009;SDS011;40903;51.638;7.528;2023-09-19T08:43:05;12.17;;;2.97;;
55009;SDS011;40903;51.638;7.528;2023-09-19T08:45:32;10.87;;;3.10;;
55009;SDS011;40903;51.638;7.528;2023-09-19T08:51:00;10.83;;;2.90;;
55009;SDS011;40903;51.638;7.528;2023-09-19T08:53:47;10.10;;;2.93;;
55009;SDS011;40903;51.638;7.528;2023-09-19T08:56:17;9.13;;;2.60;;
55009;SDS011;40903;51.638;7.528;2023-09-19T09:01:49;10.67;;;3.00;;
55009;SDS011;40903;51.638;7.528;2023-09-19T09:04:18;7.97;;;2.43;;
55009;SDS011;40903;51.638;7.528;2023-09-19T09:06:45;15.20;;;3.20;;
55009;SDS011;40903;51.638;7.528;2023-09-19T09:09:13;10.83;;;2.67;;
55009;SDS011;40903;51.638;7.528;2023-09-19T09:11:42;11.17;;;3.37;;
55009;SDS011;40903;51.638;7.528;2023-09-19T09:14:07;9.27;;;2.83;;
55009;SDS011;40903;51.638;7.528;2023-09-19T09:16:33;7.20;;;2.33;;
55009;SDS011;40903;51.638;7.528;2023-09-19T09:19:00;14.67;;;2.77;;
55009;SDS011;40903;51.638;7.528;2023-09-19T09:21:26;12.87;;;2.97;;
55009;SDS011;40903;51.638;7.528;2023-09-19T09:23:53;6.90;;;2.23;;
55009;SDS011;40903;51.638;7.528;2023-09-19T09:26:37;8.50;;;2.53;;
55009;SDS011;40903;51.638;7.528;2023-09-19T09:29:04;10.77;;;2.77;;
55009;SDS011;40903;51.638;7.528;2023-09-19T09:31:29;9.17;;;2.63;;
55009;SDS011;40903;51.638;7.528;2023-09-19T09:33:55;12.70;;;2.40;;
55009;SDS011;40903;51.638;7.528;2023-09-19T09:36:34;7.47;;;2.63;;
55009;SDS011;40903;51.638;7.528;2023-09-19T09:39:04;9.23;;;2.63;;
55009;SDS011;40903;51.638;7.528;2023-09-19T09:41:50;9.57;;;2.73;;
55009;SDS011;40903;51.638;7.528;2023-09-19T09:44:17;10.03;;;2.87;;
55009;SDS011;40903;51.638;7.528;2023-09-19T09:46:47;13.17;;;2.37;;
55009;SDS011;40903;51.638;7.528;2023-09-19T09:49:22;11.50;;;2.33;;
55009;SDS011;40903;51.638;7.528;2023-09-19T09:51:59;11.67;;;2.23;;
55009;SDS011;40903;51.638;7.528;2023-09-19T09:54:30;8.10;;;2.47;;
55009;SDS011;40903;51.638;7.528;2023-09-19T09:57:02;10.00;;;2.20;;
55009;SDS011;40903;51.638;7.528;2023-09-19T09:59:54;11.37;;;2.63;;
55009;SDS011;40903;51.638;7.528;2023-09-19T10:02:41;8.03;;;2.37;;
55009;SDS011;40903;51.638;7.528;2023-09-19T10:05:13;10.90;;;2.53;;
55009;SDS011;40903;51.638;7.528;2023-09-19T10:08:11;7.07;;;2.23;;
55009;SDS011;40903;51.638;7.528;2023-09-19T10:10:38;6.50;;;2.13;;
55009;SDS011;40903;51.638;7.528;2023-09-19T10:13:10;10.00;;;2.13;;
55009;SDS011;40903;51.638;7.528;2023-09-19T10:15:38;10.30;;;2.80;;
55009;SDS011;40903;51.638;7.528;2023-09-19T10:18:13;10.63;;;2.70;;
55009;SDS011;40903;51.638;7.528;2023-09-19T10:20:45;7.80;;;3.00;;
55009;SDS011;40903;51.638;7.528;2023-09-19T10:23:12;10.20;;;2.60;;
55009;SDS011;40903;51.638;7.528;2023-09-19T10:25:40;12.53;;;2.90;;
55009;SDS011;40903;51.638;7.528;2023-09-19T10:28:08;9.90;;;2.30;;
55009;SDS011;40903;51.638;7.528;2023-09-19T10:30:40;7.53;;;2.63;;
55009;SDS011;40903;51.638;7.528;2023-09-19T10:33:12;11.40;;;2.60;;
55009;SDS011;40903;51.638;7.528;2023-09-19T10:35:40;11.97;;;2.90;;
55009;SDS011;40903;51.638;7.528;2023-09-19T10:38:10;10.80;;;2.90;;
55009;SDS011;40903;51.638;7.528;2023-09-19T10:40:42;8.33;;;2.47;;
55009;SDS011;40903;51.638;7.528;2023-09-19T10:43:12;13.80;;;2.60;;
55009;SDS011;40903;51.638;7.528;2023-09-19T10:45:42;10.53;;;2.70;;
55009;SDS011;40903;51.638;7.528;2023-09-19T10:48:09;9.27;;;2.60;;
55009;SDS011;40903;51.638;7.528;2023-09-19T10:54:05;7.23;;;2.67;;
55009;SDS011;40903;51.638;7.528;2023-09-19T10:56:37;9.77;;;2.47;;
55009;SDS011;40903;51.638;7.528;2023-09-19T10:59:14;5.97;;;2.47;;
55009;SDS011;40903;51.638;7.528;2023-09-19T11:01:42;6.43;;;2.23;;
55009;SDS011;40903;51.638;7.528;2023-09-19T11:07:01;10.30;;;3.40;;
55009;SDS011;40903;51.638;7.528;2023-09-19T11:09:49;10.33;;;2.50;;
55009;SDS011;40903;51.638;7.528;2023-09-19T11:15:01;7.57;;;2.53;;
55009;SDS011;40903;51.638;7.528;2023-09-19T11:17:36;8.80;;;2.27;;
55009;SDS011;40903;51.638;7.528;2023-09-19T11:30:50;10.73;;;2.43;;
55009;SDS011;40903;51.638;7.528;2023-09-19T11:33:29;11.03;;;2.83;;
55009;SDS011;40903;51.638;7.528;2023-09-19T11:49:16;7.03;;;2.50;;
55009;SDS011;40903;51.638;7.528;2023-09-19T11:51:51;6.20;;;2.50;;
55009;SDS011;40903;51.638;7.528;2023-09-19T11:54:17;11.47;;;2.80;;
55009;SDS011;40903;51.638;7.528;2023-09-19T11:56:46;4.73;;;2.30;;
55009;SDS011;40903;51.638;7.528;2023-09-19T11:59:25;7.83;;;2.37;;
55009;SDS011;40903;51.638;7.528;2023-09-19T12:01:55;9.17;;;2.80;;
55009;SDS011;40903;51.638;7.528;2023-09-19T12:04:38;11.70;;;2.37;;
55009;SDS011;40903;51.638;7.528;2023-09-19T12:09:36;8.50;;;2.27;;
55009;SDS011;40903;51.638;7.528;2023-09-19T12:12:04;6.10;;;2.30;;
55009;SDS011;40903;51.638;7.528;2023-09-19T12:14:29;8.53;;;2.10;;
55009;SDS011;40903;51.638;7.528;2023-09-19T12:16:56;8.40;;;2.23;;
55009;SDS011;40903;51.638;7.528;2023-09-19T12:19:23;5.27;;;2.23;;
55009;SDS011;40903;51.638;7.528;2023-09-19T12:21:55;8.97;;;2.57;;
55009;SDS011;40903;51.638;7.528;2023-09-19T12:24:29;8.50;;;2.40;;
55009;SDS011;40903;51.638;7.528;2023-09-19T12:27:01;5.67;;;2.10;;
55009;SDS011;40903;51.638;7.528;2023-09-19T12:29:41;6.77;;;2.10;;
55009;SDS011;40903;51.638;7.528;2023-09-19T12:32:09;7.13;;;2.30;;
55009;SDS011;40903;51.638;7.528;2023-09-19T12:34:35;7.40;;;2.30;;
55009;SDS011;40903;51.638;7.528;2023-09-19T12:37:13;7.17;;;2.13;;
55009;SDS011;40903;51.638;7.528;2023-09-19T12:39:47;5.33;;;2.10;;
55009;SDS011;40903;51.638;7.528;2023-09-19T12:42:25;7.20;;;2.33;;
55009;SDS011;40903;51.638;7.528;2023-09-19T12:44:58;5.83;;;2.20;;
55009;SDS011;40903;51.638;7.528;2023-09-19T12:47:25;5.93;;;2.53;;
55009;SDS011;40903;51.638;7.528;2023-09-19T12:50:13;4.87;;;2.20;;
55009;SDS011;40903;51.638;7.528;2023-09-19T12:55:19;7.93;;;2.00;;
55009;SDS011;40903;51.638;7.528;2023-09-19T12:57:56;7.07;;;2.30;;
55009;SDS011;40903;51.638;7.528;2023-09-19T13:00:21;7.07;;;2.30;;
55009;SDS011;40903;51.638;7.528;2023-09-19T13:05:48;7.50;;;2.20;;
55009;SDS011;40903;51.638;7.528;2023-09-19T13:08:23;6.80;;;2.07;;
55009;SDS011;40903;51.638;7.528;2023-09-19T13:13:31;6.87;;;2.33;;
55009;SDS011;40903;51.638;7.528;2023-09-19T13:15:58;8.43;;;2.80;;
55009;SDS011;40903;51.638;7.528;2023-09-19T13:18:24;7.20;;;2.00;;
55009;SDS011;40903;51.638;7.528;2023-09-19T13:21:11;6.37;;;2.27;;
55009;SDS011;40903;51.638;7.528;2023-09-19T13:23:42;7.47;;;2.80;;
55009;SDS011;40903;51.638;7.528;2023-09-19T13:26:09;7.10;;;2.20;;
55009;SDS011;40903;51.638;7.528;2023-09-19T13:28:37;4.70;;;1.80;;
55009;SDS011;40903;51.638;7.528;2023-09-19T13:31:03;6.03;;;2.07;;
55009;SDS011;40903;51.638;7.528;2023-09-19T13:33:29;4.63;;;2.10;;
55009;SDS011;40903;51.638;7.528;2023-09-19T13:35:55;8.97;;;2.80;;
55009;SDS011;40903;51.638;7.528;2023-09-19T13:38:22;9.53;;;2.30;;
55009;SDS011;40903;51.638;7.528;2023-09-19T13:40:47;4.50;;;2.40;;
55009;SDS011;40903;51.638;7.528;2023-09-19T13:43:13;8.50;;;2.30;;
55009;SDS011;40903;51.638;7.528;2023-09-19T13:45:38;7.43;;;1.97;;
55009;SDS011;40903;51.638;7.528;2023-09-19T13:48:07;5.37;;;1.90;;
55009;SDS011;40903;51.638;7.528;2023-09-19T13:50:34;7.57;;;1.83;;
55009;SDS011;40903;51.638;7.528;2023-09-19T13:53:01;4.23;;;1.97;;
55009;SDS011;40903;51.638;7.528;2023-09-19T13:55:27;7.30;;;2.03;;
55009;SDS011;40903;51.638;7.528;2023-09-19T13:57:52;7.93;;;2.10;;
55009;SDS011;40903;51.638;7.528;2023-09-19T14:00:19;5.07;;;1.83;;
55009;SDS011;40903;51.638;7.528;2023-09-19T14:02:45;5.20;;;1.90;;
55009;SDS011;40903;51.638;7.528;2023-09-19T14:05:14;6.27;;;2.10;;
55009;SDS011;40903;51.638;7.528;2023-09-19T14:07:42;11.60;;;1.63;;
55009;SDS011;40903;51.638;7.528;2023-09-19T14:10:08;5.93;;;1.57;;
55009;SDS011;40903;51.638;7.528;2023-09-19T14:12:35;8.57;;;1.93;;
55009;SDS011;40903;51.638;7.528;2023-09-19T14:15:03;5.93;;;1.83;;
55009;SDS011;40903;51.638;7.528;2023-09-19T14:17:29;3.53;;;1.63;;
55009;SDS011;40903;51.638;7.528;2023-09-19T14:19:56;4.50;;;1.80;;
55009;SDS011;40903;51.638;7.528;2023-09-19T14:22:21;7.60;;;2.03;;
55009;SDS011;40903;51.638;7.528;2023-09-19T14:24:47;9.47;;;1.73;;
55009;SDS011;40903;51.638;7.528;2023-09-19T14:27:12;5.47;;;1.90;;
55009;SDS011;40903;51.638;7.528;2023-09-19T14:29:38;6.33;;;1.67;;
55009;SDS011;40903;51.638;7.528;2023-09-19T14:32:04;4.20;;;1.63;;
55009;SDS011;40903;51.638;7.528;2023-09-19T14:34:34;4.03;;;1.73;;
55009;SDS011;40903;51.638;7.528;2023-09-19T14:37:01;4.03;;;1.50;;
55009;SDS011;40903;51.638;7.528;2023-09-19T14:39:27;3.20;;;1.30;;
55009;SDS011;40903;51.638;7.528;2023-09-19T14:41:53;5.63;;;1.80;;
55009;SDS011;40903;51.638;7.528;2023-09-19T14:44:18;5.50;;;1.50;;
55009;SDS011;40903;51.638;7.528;2023-09-19T14:46:47;3.60;;;1.43;;
55009;SDS011;40903;51.638;7.528;2023-09-19T14:49:14;4.67;;;1.50;;
55009;SDS011;40903;51.638;7.528;2023-09-19T14:51:40;5.07;;;1.50;;
55009;SDS011;40903;51.638;7.528;2023-09-19T14:54:09;5.07;;;1.40;;
55009;SDS011;40903;51.638;7.528;2023-09-19T14:56:35;3.83;;;1.50;;
55009;SDS011;40903;51.638;7.528;2023-09-19T14:59:00;6.00;;;1.57;;
55009;SDS011;40903;51.638;7.528;2023-09-19T15:01:27;4.50;;;1.20;;
55009;SDS011;40903;51.638;7.528;2023-09-19T15:03:53;5.07;;;1.57;;
55009;SDS011;40903;51.638;7.528;2023-09-19T15:06:20;4.83;;;1.50;;
55009;SDS011;40903;51.638;7.528;2023-09-19T15:08:47;3.33;;;1.30;;
55009;SDS011;40903;51.638;7.528;2023-09-19T15:11:16;5.87;;;1.60;;
55009;SDS011;40903;51.638;7.528;2023-09-19T15:13:43;4.70;;;1.50;;
55009;SDS011;40903;51.638;7.528;2023-09-19T15:16:10;5.27;;;1.57;;
55009;SDS011;40903;51.638;7.528;2023-09-19T15:18:36;3.33;;;1.40;;
55009;SDS011;40903;51.638;7.528;2023-09-19T15:21:03;4.30;;;1.27;;
55009;SDS011;40903;51.638;7.528;2023-09-19T15:23:32;4.60;;;1.80;;
55009;SDS011;40903;51.638;7.528;2023-09-19T15:26:02;5.13;;;1.30;;
55009;SDS011;40903;51.638;7.528;2023-09-19T15:28:29;3.73;;;1.57;;
55009;SDS011;40903;51.638;7.528;2023-09-19T15:31:28;3.03;;;1.20;;
55009;SDS011;40903;51.638;7.528;2023-09-19T15:33:46;4.83;;;1.30;;
55009;SDS011;40903;51.638;7.528;2023-09-19T15:36:13;4.30;;;1.33;;
55009;SDS011;40903;51.638;7.528;2023-09-19T15:41:37;2.80;;;1.10;;
55009;SDS011;40903;51.638;7.528;2023-09-19T15:44:11;3.67;;;1.40;;
55009;SDS011;40903;51.638;7.528;2023-09-19T15:46:38;3.73;;;1.30;;
55009;SDS011;40903;51.638;7.528;2023-09-19T15:49:03;4.33;;;1.40;;
55009;SDS011;40903;51.638;7.528;2023-09-19T15:51:30;3.33;;;1.00;;
55009;SDS011;40903;51.638;7.528;2023-09-19T15:53:55;5.13;;;1.50;;
55009;SDS011;40903;51.638;7.528;2023-09-19T15:56:23;3.53;;;1.17;;
55009;SDS011;40903;51.638;7.528;2023-09-19T15:58:52;2.80;;;1.23;;
55009;SDS011;40903;51.638;7.528;2023-09-19T16:01:18;3.33;;;1.13;;